Time;durP1;ratioP1;P1;durP2;ratioP2;P2;SDS_P1;SDS_P2;PMS_P1;PMS_P2;Temp;Humidity;BMP_temperature;BMP_pressure;BME280_temperature;BME280_humidity;BME280_pressure;Samples;Min_cycle;Max_cycle;Signal;HPM_P1;HPM_P2
2023/10/13 00:00:36;;;;;;;3.33;3.03;;;;;;;;;;5141792;27;20202;-63
2023/10/13 00:03:03;;;;;;;3.05;2.85;;;;;;;;;;5141739;27;20226;-63
2023/10/13 00:05:32;;;;;;;3.10;2.85;;;;;;;;;;5141710;27;20210;-63
2023/10/13 00:08:02;;;;;;;3.40;3.10;;;;;;;;;;5141730;27;20263;-63
2023/10/13 00:10:30;;;;;;;3.35;3.05;;;;;;;;;;5141767;27;20484;-63
2023/10/13 00:13:06;;;;;;;3.40;3.10;;;;;;;;;;5141510;27;20293;-63
2023/10/13 00:15:38;;;;;;;3.75;3.00;;;;;;;;;;5141327;27;20321;-63
2023/10/13 00:18:12;;;;;;;3.30;3.00;;;;;;;;;;5141213;27;20198;-63
2023/10/13 00:20:41;;;;;;;3.60;3.30;;;;;;;;;;5141036;27;20210;-63
2023/10/13 00:23:08;;;;;;;3.70;3.40;;;;;;;;;;5140486;27;20321;-63
2023/10/13 00:25:43;;;;;;;3.20;2.92;;;;;;;;;;5140796;27;20202;-63
2023/10/13 00:28:22;;;;;;;3.33;3.03;;;;;;;;;;5141468;27;20630;-63
2023/10/13 00:30:52;;;;;;;3.88;3.45;;;;;;;;;;5141211;27;20202;-63
2023/10/13 00:33:22;;;;;;;3.70;3.40;;;;;;;;;;5141246;27;20665;-63
2023/10/13 00:35:53;;;;;;;3.28;2.88;;;;;;;;;;5140718;27;20214;-63
2023/10/13 00:38:23;;;;;;;3.53;2.97;;;;;;;;;;5141056;27;20287;-63
2023/10/13 00:40:53;;;;;;;3.35;3.10;;;;;;;;;;5140709;27;20655;-63
2023/10/13 00:43:37;;;;;;;4.38;3.30;;;;;;;;;;5140987;27;20609;-63
2023/10/13 00:46:07;;;;;;;3.53;3.22;;;;;;;;;;5139794;27;20194;-63
2023/10/13 00:48:42;;;;;;;3.20;2.90;;;;;;;;;;5140595;27;20266;-63
2023/10/13 00:51:18;;;;;;;3.42;3.13;;;;;;;;;;5140635;27;20501;-63
2023/10/13 00:53:47;;;;;;;3.10;2.80;;;;;;;;;;5141231;27;20293;-63
2023/10/13 00:56:22;;;;;;;3.60;3.30;;;;;;;;;;5139841;27;20206;-63
2023/10/13 00:58:51;;;;;;;3.20;2.63;;;;;;;;;;5140674;27;20217;-63
2023/10/13 01:01:21;;;;;;;3.00;2.80;;;;;;;;;;5140025;27;20259;-63
2023/10/13 01:03:50;;;;;;;3.17;2.97;;;;;;;;;;5140327;27;20229;-63
2023/10/13 01:06:19;;;;;;;3.05;2.83;;;;;;;;;;5140868;27;20198;-63
2023/10/13 01:08:50;;;;;;;3.53;3.22;;;;;;;;;;5139910;27;20210;-63
2023/10/13 01:11:18;;;;;;;2.92;2.72;;;;;;;;;;5140120;27;20450;-63
2023/10/13 01:13:50;;;;;;;3.08;2.88;;;;;;;;;;5140493;27;20194;-63
2023/10/13 01:16:23;;;;;;;3.30;3.00;;;;;;;;;;5140081;27;20202;-63
2023/10/13 01:18:51;;;;;;;2.97;2.78;;;;;;;;;;5140026;27;20216;-63
2023/10/13 01:21:20;;;;;;;3.00;2.80;;;;;;;;;;5139352;27;20202;-63
2023/10/13 01:23:50;;;;;;;3.15;2.90;;;;;;;;;;5139635;27;20564;-63
2023/10/13 01:26:24;;;;;;;2.95;2.75;;;;;;;;;;5139696;27;20291;-63
2023/10/13 01:28:50;;;;;;;3.72;3.10;;;;;;;;;;5139879;27;20210;-63
2023/10/13 01:31:28;;;;;;;3.03;2.72;;;;;;;;;;5140263;27;20293;-63
2023/10/13 01:33:58;;;;;;;3.13;2.92;;;;;;;;;;5140073;27;20198;-62
2023/10/13 01:36:25;;;;;;;3.28;2.97;;;;;;;;;;5139294;27;20546;-62
2023/10/13 01:38:54;;;;;;;3.20;2.90;;;;;;;;;;5139437;27;20198;-63
2023/10/13 01:41:22;;;;;;;3.25;2.95;;;;;;;;;;5139581;27;20234;-62
2023/10/13 01:43:49;;;;;;;3.00;2.80;;;;;;;;;;5139968;27;20276;-62
2023/10/13 01:46:19;;;;;;;3.30;3.00;;;;;;;;;;5139472;27;20297;-63
2023/10/13 01:48:47;;;;;;;3.10;2.80;;;;;;;;;;5139716;27;20285;-63
2023/10/13 01:51:13;;;;;;;3.30;3.10;;;;;;;;;;5139564;27;20289;-63
2023/10/13 01:53:42;;;;;;;3.20;2.90;;;;;;;;;;5139624;27;20279;-63
2023/10/13 01:56:10;;;;;;;3.08;2.80;;;;;;;;;;5139274;27;20267;-63
2023/10/13 01:58:42;;;;;;;3.30;3.00;;;;;;;;;;5139609;27;20202;-63
2023/10/13 02:01:10;;;;;;;2.85;2.65;;;;;;;;;;5139468;27;20685;-62
2023/10/13 02:03:45;;;;;;;2.90;2.70;;;;;;;;;;5139210;27;20566;-63
2023/10/13 02:06:17;;;;;;;3.00;2.70;;;;;;;;;;5139652;27;20296;-63
2023/10/13 02:08:47;;;;;;;2.92;2.72;;;;;;;;;;5139172;27;20212;-64
2023/10/13 02:11:18;;;;;;;2.70;2.50;;;;;;;;;;5139233;27;20198;-63
2023/10/13 02:13:48;;;;;;;3.10;2.80;;;;;;;;;;5138616;27;20335;-62
2023/10/13 02:16:21;;;;;;;2.85;2.65;;;;;;;;;;5139013;27;20288;-63
2023/10/13 02:18:52;;;;;;;3.00;2.80;;;;;;;;;;5139359;27;20242;-63
2023/10/13 02:21:19;;;;;;;3.15;2.92;;;;;;;;;;5139072;27;20473;-63
2023/10/13 02:23:59;;;;;;;3.38;3.08;;;;;;;;;;5138728;27;20230;-63
2023/10/13 02:26:38;;;;;;;3.00;2.80;;;;;;;;;;5139008;27;20212;-64
2023/10/13 02:29:07;;;;;;;2.80;2.60;;;;;;;;;;5139279;27;20403;-63
2023/10/13 02:31:36;;;;;;;3.17;2.88;;;;;;;;;;5138133;27;20518;-63
2023/10/13 02:34:07;;;;;;;2.88;2.67;;;;;;;;;;5138903;27;20194;-64
2023/10/13 02:36:46;;;;;;;2.80;2.60;;;;;;;;;;5138576;27;20237;-64
2023/10/13 02:39:15;;;;;;;2.70;2.50;;;;;;;;;;5138889;27;20266;-63
2023/10/13 02:41:48;;;;;;;3.33;2.80;;;;;;;;;;5138986;27;20284;-63
2023/10/13 02:44:27;;;;;;;3.40;3.10;;;;;;;;;;5138484;27;20226;-63
2023/10/13 02:46:55;;;;;;;3.20;2.95;;;;;;;;;;5138754;27;20198;-63
2023/10/13 02:49:22;;;;;;;2.90;2.60;;;;;;;;;;5138711;27;20213;-63
2023/10/13 02:51:52;;;;;;;3.05;2.85;;;;;;;;;;5138765;27;20592;-63
2023/10/13 02:54:19;;;;;;;3.40;3.10;;;;;;;;;;5138591;27;20241;-63
2023/10/13 02:56:56;;;;;;;3.10;2.90;;;;;;;;;;5138525;27;20199;-63
2023/10/13 02:59:34;;;;;;;2.83;2.63;;;;;;;;;;5138796;27;20205;-63
2023/10/13 03:02:00;;;;;;;3.35;3.05;;;;;;;;;;5138879;27;20201;-63
2023/10/13 03:04:29;;;;;;;3.10;2.85;;;;;;;;;;5138343;27;20312;-63
2023/10/13 03:06:59;;;;;;;2.95;2.75;;;;;;;;;;5137432;27;20222;-63
2023/10/13 03:09:28;;;;;;;3.10;2.90;;;;;;;;;;5140417;27;20305;-63
2023/10/13 03:11:56;;;;;;;2.92;2.70;;;;;;;;;;5142408;27;20226;-63
2023/10/13 03:14:30;;;;;;;3.15;2.85;;;;;;;;;;5142701;27;20229;-63
2023/10/13 03:17:02;;;;;;;2.70;2.50;;;;;;;;;;5142075;27;20193;-64
2023/10/13 03:19:34;;;;;;;2.90;2.70;;;;;;;;;;5142304;27;20198;-63
2023/10/13 03:22:09;;;;;;;2.90;2.60;;;;;;;;;;5142130;27;20233;-63
2023/10/13 03:24:36;;;;;;;3.30;3.00;;;;;;;;;;5141908;27;20620;-63
2023/10/13 03:27:09;;;;;;;3.22;2.92;;;;;;;;;;5141864;27;20227;-63
2023/10/13 03:29:38;;;;;;;2.97;2.78;;;;;;;;;;5141163;27;20649;-63
2023/10/13 03:32:11;;;;;;;2.58;2.38;;;;;;;;;;5141933;27;20202;-63
2023/10/13 03:34:49;;;;;;;3.00;2.80;;;;;;;;;;5141889;27;20239;-63
2023/10/13 03:37:19;;;;;;;2.90;2.70;;;;;;;;;;5141617;27;20201;-63
2023/10/13 03:39:46;;;;;;;2.83;2.50;;;;;;;;;;5141937;27;20578;-63
2023/10/13 03:42:19;;;;;;;2.90;2.70;;;;;;;;;;5141582;27;20574;-63
2023/10/13 03:44:47;;;;;;;2.72;2.53;;;;;;;;;;5141165;27;20233;-64
2023/10/13 03:47:26;;;;;;;3.20;2.90;;;;;;;;;;5141221;27;20206;-63
2023/10/13 03:50:14;;;;;;;3.42;3.13;;;;;;;;;;5141741;27;20220;-63
2023/10/13 03:52:42;;;;;;;3.20;2.90;;;;;;;;;;5141124;27;20292;-63
2023/10/13 03:55:17;;;;;;;3.10;2.90;;;;;;;;;;5141361;27;20198;-63
2023/10/13 03:57:50;;;;;;;3.55;3.25;;;;;;;;;;5140981;27;20201;-63
2023/10/13 04:00:24;;;;;;;2.97;2.78;;;;;;;;;;5141445;27;20209;-63
2023/10/13 04:03:06;;;;;;;3.30;2.97;;;;;;;;;;5140810;27;20501;-63
2023/10/13 04:05:45;;;;;;;3.25;2.95;;;;;;;;;;5141325;27;20241;-63
2023/10/13 04:16:50;;;;;;;3.25;3.00;;;;;;;;;;5141012;27;20490;-63
2023/10/13 04:19:22;;;;;;;2.90;2.70;;;;;;;;;;5140766;27;20210;-63
2023/10/13 04:21:57;;;;;;;3.15;2.85;;;;;;;;;;5139430;27;20230;-63
2023/10/13 04:27:53;;;;;;;3.05;2.85;;;;;;;;;;5139684;27;20262;-63
2023/10/13 04:30:27;;;;;;;3.03;2.72;;;;;;;;;;5140877;27;20609;-62
2023/10/13 04:33:35;;;;;;;3.30;3.00;;;;;;;;;;5140383;27;20258;-63
2023/10/13 04:35:58;;;;;;;2.85;2.65;;;;;;;;;;5139794;27;20605;-63
2023/10/13 04:38:33;;;;;;;3.28;2.97;;;;;;;;;;5140163;27;20202;-63
2023/10/13 04:41:01;;;;;;;4.03;3.30;;;;;;;;;;5139562;27;20201;-63
2023/10/13 04:43:55;;;;;;;4.32;3.50;;;;;;;;;;5139805;27;20326;-63
2023/10/13 04:46:53;;;;;;;6.13;3.83;;;;;;;;;;5139423;27;20214;-63
2023/10/13 04:49:28;;;;;;;4.65;3.45;;;;;;;;;;5139230;27;20202;-63
2023/10/13 04:52:12;;;;;;;6.95;3.28;;;;;;;;;;5139607;27;20206;-63
2023/10/13 04:54:49;;;;;;;5.70;3.50;;;;;;;;;;5140176;27;20201;-63
2023/10/13 04:57:32;;;;;;;4.45;3.72;;;;;;;;;;5139262;27;20206;-63
2023/10/13 05:03:17;;;;;;;5.65;3.70;;;;;;;;;;5079207;27;20279;-63
2023/10/13 05:44:37;;;;;;;7.53;4.22;;;;;;;;;;5137931;27;20241;-63
2023/10/13 05:49:53;;;;;;;7.32;5.15;;;;;;;;;;5138096;27;20199;-63
2023/10/13 06:30:58;;;;;;;7.20;4.50;;;;;;;;;;5115842;28;20220;-64
2023/10/13 06:33:28;;;;;;;7.55;4.95;;;;;;;;;;5116268;28;20206;-62
2023/10/13 06:35:57;;;;;;;6.85;4.50;;;;;;;;;;5116395;28;20207;-63
2023/10/13 06:38:27;;;;;;;7.00;4.53;;;;;;;;;;5116450;28;20195;-63
2023/10/13 06:40:56;;;;;;;9.30;4.80;;;;;;;;;;5116283;28;20299;-63
2023/10/13 06:43:24;;;;;;;7.70;4.60;;;;;;;;;;5115508;28;20207;-63
2023/10/13 06:45:56;;;;;;;6.90;4.40;;;;;;;;;;5115947;28;20229;-63
2023/10/13 06:48:25;;;;;;;6.35;4.28;;;;;;;;;;5115843;28;20202;-63
2023/10/13 06:50:55;;;;;;;7.68;4.55;;;;;;;;;;5115777;28;20234;-63
2023/10/13 06:53:24;;;;;;;6.35;4.50;;;;;;;;;;5115874;28;20283;-63
2023/10/13 06:55:58;;;;;;;6.10;4.13;;;;;;;;;;5115810;28;20293;-63
2023/10/13 06:58:29;;;;;;;6.75;4.90;;;;;;;;;;5115785;28;20210;-63
2023/10/13 07:00:58;;;;;;;5.85;4.35;;;;;;;;;;5116076;28;20209;-62
2023/10/13 07:03:26;;;;;;;6.38;4.82;;;;;;;;;;5115835;28;20206;-63
2023/10/13 07:05:54;;;;;;;6.70;4.68;;;;;;;;;;5115580;28;20210;-63
2023/10/13 07:08:21;;;;;;;6.30;4.43;;;;;;;;;;5115842;28;20206;-63
2023/10/13 07:11:01;;;;;;;6.70;4.50;;;;;;;;;;5115286;28;20203;-63
2023/10/13 07:13:30;;;;;;;7.63;5.07;;;;;;;;;;5115657;28;20495;-63
2023/10/13 07:16:05;;;;;;;6.13;4.20;;;;;;;;;;5115900;28;20557;-63
2023/10/13 07:18:36;;;;;;;5.88;4.38;;;;;;;;;;5125292;27;20500;-63
2023/10/13 07:21:09;;;;;;;6.47;4.68;;;;;;;;;;5128992;28;20244;-63
2023/10/13 07:23:37;;;;;;;7.07;4.75;;;;;;;;;;5135356;27;20226;-63
2023/10/13 07:26:08;;;;;;;6.32;4.68;;;;;;;;;;5136768;27;20198;-63
2023/10/13 07:28:43;;;;;;;6.97;4.70;;;;;;;;;;5135979;27;20202;-63
2023/10/13 07:31:14;;;;;;;5.82;4.40;;;;;;;;;;5136435;27;20229;-63
2023/10/13 07:33:42;;;;;;;5.35;4.32;;;;;;;;;;5136266;27;20202;-64
2023/10/13 07:36:17;;;;;;;7.50;4.97;;;;;;;;;;5136179;27;20488;-63
2023/10/13 07:38:48;;;;;;;6.28;4.70;;;;;;;;;;5135841;28;20201;-63
2023/10/13 07:41:17;;;;;;;5.18;4.40;;;;;;;;;;5136141;27;20457;-63
2023/10/13 07:43:48;;;;;;;6.93;4.50;;;;;;;;;;5136039;27;20228;-63
2023/10/13 07:46:16;;;;;;;5.47;4.15;;;;;;;;;;5135924;27;20209;-63
2023/10/13 07:48:45;;;;;;;6.65;4.50;;;;;;;;;;5135887;27;20211;-63
2023/10/13 07:51:15;;;;;;;6.15;4.30;;;;;;;;;;5136666;27;20202;-63
2023/10/13 07:53:43;;;;;;;6.97;4.43;;;;;;;;;;5135745;27;20218;-63
2023/10/13 07:56:12;;;;;;;5.20;3.83;;;;;;;;;;5139053;27;20204;-63
2023/10/13 07:58:52;;;;;;;6.10;4.18;;;;;;;;;;5139672;27;20199;-63
2023/10/13 08:01:21;;;;;;;5.95;4.38;;;;;;;;;;5139224;27;20285;-63
2023/10/13 08:04:04;;;;;;;5.60;4.03;;;;;;;;;;5139749;27;20547;-64
2023/10/13 08:06:32;;;;;;;5.50;4.40;;;;;;;;;;5138735;27;20194;-63
2023/10/13 08:09:08;;;;;;;5.65;4.20;;;;;;;;;;5139149;27;20493;-63
2023/10/13 08:11:37;;;;;;;5.63;4.15;;;;;;;;;;5139272;27;20202;-63
2023/10/13 08:14:22;;;;;;;5.05;4.55;;;;;;;;;;5139388;27;20198;-63
2023/10/13 08:16:54;;;;;;;6.03;4.10;;;;;;;;;;5139067;27;20225;-63
2023/10/13 08:19:26;;;;;;;5.18;4.00;;;;;;;;;;5139341;27;20198;-63
2023/10/13 08:21:57;;;;;;;6.00;4.38;;;;;;;;;;5139165;27;20238;-63
2023/10/13 08:24:55;;;;;;;5.03;3.92;;;;;;;;;;5139563;27;20226;-63
2023/10/13 08:55:39;;;;;;;6.55;4.38;;;;;;;;;;5113097;27;20473;-64
2023/10/13 08:58:13;;;;;;;5.60;4.13;;;;;;;;;;5092643;28;20203;-64
2023/10/13 09:03:39;;;;;;;5.47;3.92;;;;;;;;;;5088323;28;20234;-63
2023/10/13 09:06:06;;;;;;;4.75;4.20;;;;;;;;;;5092580;28;20238;-63
2023/10/13 09:08:44;;;;;;;5.93;4.20;;;;;;;;;;5091688;28;20210;-63
2023/10/13 09:11:12;;;;;;;5.57;3.90;;;;;;;;;;5092083;28;20592;-63
2023/10/13 09:13:44;;;;;;;5.55;4.25;;;;;;;;;;5091853;28;20210;-63
2023/10/13 09:16:50;;;;;;;6.03;4.32;;;;;;;;;;5092320;28;20204;-63
2023/10/13 09:19:11;;;;;;;6.22;4.28;;;;;;;;;;5091266;28;20204;-63
2023/10/13 09:21:48;;;;;;;6.13;4.55;;;;;;;;;;5091642;28;20203;-63
2023/10/13 09:24:29;;;;;;;5.47;4.15;;;;;;;;;;5091289;28;20231;-63
2023/10/13 09:27:01;;;;;;;5.45;3.97;;;;;;;;;;5091616;28;20612;-63
2023/10/13 09:29:29;;;;;;;5.07;3.80;;;;;;;;;;5091047;28;20239;-63
2023/10/13 09:32:00;;;;;;;5.25;4.47;;;;;;;;;;5090520;28;20196;-63
2023/10/13 09:34:29;;;;;;;5.00;4.50;;;;;;;;;;5091173;28;20211;-63
2023/10/13 09:36:58;;;;;;;5.85;3.90;;;;;;;;;;5091062;28;20214;-63
2023/10/13 09:39:34;;;;;;;4.85;3.67;;;;;;;;;;5091663;28;20200;-63
2023/10/13 09:42:03;;;;;;;4.47;4.07;;;;;;;;;;5091576;28;20226;-63
2023/10/13 09:44:31;;;;;;;5.35;4.47;;;;;;;;;;5091717;28;20251;-63
2023/10/13 09:47:07;;;;;;;5.50;4.45;;;;;;;;;;5091403;28;20196;-63
2023/10/13 09:49:44;;;;;;;5.82;4.18;;;;;;;;;;5091449;28;20728;-64
2023/10/13 09:52:18;;;;;;;5.10;3.92;;;;;;;;;;5091122;28;20498;-64
2023/10/13 09:54:49;;;;;;;4.80;3.80;;;;;;;;;;5085627;28;20243;-64
2023/10/13 09:57:24;;;;;;;6.50;4.00;;;;;;;;;;5077444;28;20211;-64
2023/10/13 09:59:53;;;;;;;5.55;4.07;;;;;;;;;;5077140;28;20755;-64
2023/10/13 10:02:25;;;;;;;6.72;4.07;;;;;;;;;;5077055;28;20201;-63
2023/10/13 10:04:52;;;;;;;5.50;3.72;;;;;;;;;;5077387;28;20228;-63
2023/10/13 10:07:27;;;;;;;4.50;4.10;;;;;;;;;;5076608;28;20205;-63
2023/10/13 10:09:56;;;;;;;5.82;4.15;;;;;;;;;;5077145;28;20290;-63
2023/10/13 10:12:33;;;;;;;5.25;3.83;;;;;;;;;;5076780;28;20273;-63
2023/10/13 10:15:10;;;;;;;4.35;3.83;;;;;;;;;;5076352;28;20596;-63
2023/10/13 10:17:40;;;;;;;5.13;4.13;;;;;;;;;;5076699;28;20200;-63
2023/10/13 10:20:19;;;;;;;5.35;3.70;;;;;;;;;;5076861;28;20204;-63
2023/10/13 10:22:58;;;;;;;5.28;4.10;;;;;;;;;;5076093;28;20224;-63
2023/10/13 10:25:34;;;;;;;4.50;4.03;;;;;;;;;;5076574;28;20200;-63
2023/10/13 10:28:06;;;;;;;4.88;3.72;;;;;;;;;;5076946;28;20212;-63
2023/10/13 10:30:34;;;;;;;4.60;4.05;;;;;;;;;;5076352;28;20211;-63
2023/10/13 10:33:07;;;;;;;5.07;4.53;;;;;;;;;;5076349;28;20200;-63
2023/10/13 10:35:35;;;;;;;4.70;3.92;;;;;;;;;;5069204;28;20528;-63
2023/10/13 10:38:15;;;;;;;6.70;3.97;;;;;;;;;;5056362;28;20197;-63
2023/10/13 10:40:58;;;;;;;6.05;4.03;;;;;;;;;;5056036;28;20275;-63
2023/10/13 10:43:41;;;;;;;5.40;4.00;;;;;;;;;;5056377;28;20228;-63
2023/10/13 10:46:10;;;;;;;4.40;3.92;;;;;;;;;;5067717;28;20200;-63
2023/10/13 10:48:42;;;;;;;6.63;4.60;;;;;;;;;;5076580;28;20231;-63
2023/10/13 10:51:15;;;;;;;5.57;4.05;;;;;;;;;;5076452;28;20208;-63
2023/10/13 10:53:46;;;;;;;5.28;3.95;;;;;;;;;;5076305;28;20625;-63
2023/10/13 10:56:36;;;;;;;5.00;3.58;;;;;;;;;;5076197;28;20204;-63
2023/10/13 10:59:06;;;;;;;4.30;3.90;;;;;;;;;;5075547;28;20204;-63
2023/10/13 11:01:46;;;;;;;4.05;3.65;;;;;;;;;;5076612;28;20200;-63
2023/10/13 11:04:18;;;;;;;4.50;3.50;;;;;;;;;;5075942;28;20321;-63
2023/10/13 11:06:54;;;;;;;4.68;3.70;;;;;;;;;;5076037;28;20240;-63
2023/10/13 11:09:31;;;;;;;4.40;4.00;;;;;;;;;;5076121;28;20200;-63
2023/10/13 11:12:03;;;;;;;4.40;4.00;;;;;;;;;;5075969;28;20204;-63
2023/10/13 11:14:32;;;;;;;4.80;3.63;;;;;;;;;;5075308;28;20193;-63
2023/10/13 11:17:04;;;;;;;4.47;3.60;;;;;;;;;;5075541;28;20247;-63
2023/10/13 11:19:35;;;;;;;4.13;3.78;;;;;;;;;;5076368;28;20235;-63
2023/10/13 11:22:11;;;;;;;4.30;3.60;;;;;;;;;;5075379;28;20204;-63
2023/10/13 11:24:42;;;;;;;4.15;3.72;;;;;;;;;;5075595;28;20235;-63
2023/10/13 11:27:21;;;;;;;3.78;3.33;;;;;;;;;;5075472;28;20574;-64
2023/10/13 11:29:52;;;;;;;4.65;3.88;;;;;;;;;;5075025;28;20204;-64
2023/10/13 11:32:21;;;;;;;4.60;3.67;;;;;;;;;;5075062;28;20216;-64
2023/10/13 11:34:54;;;;;;;4.97;3.35;;;;;;;;;;5075055;28;20204;-64
2023/10/13 11:37:37;;;;;;;4.10;3.47;;;;;;;;;;5075541;28;20216;-64
2023/10/13 11:40:09;;;;;;;4.13;3.70;;;;;;;;;;5075783;28;20257;-64
2023/10/13 11:42:37;;;;;;;5.03;3.60;;;;;;;;;;5075410;28;20204;-64
2023/10/13 11:45:28;;;;;;;5.07;3.88;;;;;;;;;;5074894;28;20234;-64
2023/10/13 11:47:59;;;;;;;5.53;4.05;;;;;;;;;;5075740;28;20212;-64
2023/10/13 11:50:34;;;;;;;4.97;3.78;;;;;;;;;;5075664;28;20200;-64
2023/10/13 11:53:07;;;;;;;4.68;4.05;;;;;;;;;;5074664;28;20200;-63
2023/10/13 11:55:34;;;;;;;4.07;3.67;;;;;;;;;;5074986;28;20232;-64
2023/10/13 11:58:05;;;;;;;4.22;3.80;;;;;;;;;;5075588;28;20287;-64
2023/10/13 12:06:18;;;;;;;4.05;3.65;;;;;;;;;;5074735;28;20196;-64
2023/10/13 12:08:51;;;;;;;5.88;4.38;;;;;;;;;;5074787;28;20247;-64
2023/10/13 12:11:39;;;;;;;4.63;4.13;;;;;;;;;;5075084;28;20212;-64
2023/10/13 12:14:16;;;;;;;8.80;4.15;;;;;;;;;;5074931;28;20310;-64
2023/10/13 12:16:48;;;;;;;5.72;3.92;;;;;;;;;;5075348;28;20212;-64
2023/10/13 12:19:17;;;;;;;8.23;4.38;;;;;;;;;;5074467;28;20246;-64
2023/10/13 12:21:47;;;;;;;5.30;3.97;;;;;;;;;;5075727;28;20215;-64
2023/10/13 12:24:22;;;;;;;7.10;4.13;;;;;;;;;;5074326;28;20605;-64
2023/10/13 12:26:55;;;;;;;8.63;4.80;;;;;;;;;;5074603;28;20299;-63
2023/10/13 12:29:28;;;;;;;6.47;4.40;;;;;;;;;;5075046;28;20294;-63
2023/10/13 12:32:08;;;;;;;6.20;4.30;;;;;;;;;;5074355;28;20208;-63
2023/10/13 12:37:38;;;;;;;8.52;4.78;;;;;;;;;;5074358;28;20230;-63
2023/10/13 12:51:20;;;;;;;5.95;4.75;;;;;;;;;;5073199;28;20228;-64
2023/10/13 12:53:49;;;;;;;6.35;4.50;;;;;;;;;;5074063;28;20240;-64
2023/10/13 12:56:16;;;;;;;5.15;4.65;;;;;;;;;;5074089;28;20200;-64
2023/10/13 12:58:51;;;;;;;5.40;4.43;;;;;;;;;;5074692;28;20593;-64
2023/10/13 13:01:20;;;;;;;7.32;4.85;;;;;;;;;;5073886;28;20238;-64
2023/10/13 13:03:49;;;;;;;5.70;4.88;;;;;;;;;;5073192;28;20209;-64
2023/10/13 13:06:18;;;;;;;6.88;4.95;;;;;;;;;;5073885;28;20204;-64
2023/10/13 13:08:46;;;;;;;5.10;4.60;;;;;;;;;;5073728;28;20204;-64
2023/10/13 13:11:13;;;;;;;6.80;4.72;;;;;;;;;;5073894;28;20205;-64
2023/10/13 13:13:41;;;;;;;6.15;5.10;;;;;;;;;;5074289;28;20203;-65
2023/10/13 13:16:09;;;;;;;5.13;4.60;;;;;;;;;;5074096;28;20206;-65
2023/10/13 13:18:36;;;;;;;5.57;4.85;;;;;;;;;;5074178;28;20250;-65
2023/10/13 13:21:06;;;;;;;5.75;5.20;;;;;;;;;;5073984;28;20201;-64
2023/10/13 13:23:34;;;;;;;5.72;4.60;;;;;;;;;;5074562;28;20266;-64
2023/10/13 13:26:08;;;;;;;5.00;4.47;;;;;;;;;;5074049;28;20516;-64
2023/10/13 13:28:37;;;;;;;5.43;4.90;;;;;;;;;;5074523;28;20265;-64
2023/10/13 13:31:08;;;;;;;6.43;4.82;;;;;;;;;;5076606;28;20204;-64
2023/10/13 13:33:38;;;;;;;5.50;4.80;;;;;;;;;;5076464;28;20204;-64
2023/10/13 13:36:13;;;;;;;5.97;5.13;;;;;;;;;;5077980;28;20204;-64
2023/10/13 13:38:41;;;;;;;6.90;4.90;;;;;;;;;;5078457;28;20211;-64
2023/10/13 13:41:15;;;;;;;5.32;4.50;;;;;;;;;;5077599;28;20285;-64
2023/10/13 13:43:54;;;;;;;5.22;4.60;;;;;;;;;;5077376;28;20204;-64
2023/10/13 13:46:24;;;;;;;5.40;4.60;;;;;;;;;;5077244;28;20211;-64
2023/10/13 13:48:58;;;;;;;6.90;5.00;;;;;;;;;;5077187;28;20212;-64
2023/10/13 13:51:28;;;;;;;5.97;4.10;;;;;;;;;;5077281;28;20299;-64
2023/10/13 13:53:56;;;;;;;6.18;5.07;;;;;;;;;;5076956;28;20240;-64
2023/10/13 13:56:25;;;;;;;6.50;4.78;;;;;;;;;;5076389;28;20208;-64
2023/10/13 13:58:53;;;;;;;6.05;4.40;;;;;;;;;;5076261;28;20205;-65
2023/10/13 14:01:22;;;;;;;5.07;4.57;;;;;;;;;;5076906;28;20215;-64
2023/10/13 14:03:51;;;;;;;5.53;4.43;;;;;;;;;;5076835;28;20243;-64
2023/10/13 14:06:23;;;;;;;5.00;4.50;;;;;;;;;;5077056;28;20204;-64
2023/10/13 14:08:54;;;;;;;5.70;4.22;;;;;;;;;;5076264;28;20200;-64
2023/10/13 14:14:28;;;;;;;5.22;4.25;;;;;;;;;;5018162;28;20188;-64
2023/10/13 14:17:02;;;;;;;5.90;4.60;;;;;;;;;;5076459;28;20200;-64
2023/10/13 14:19:30;;;;;;;10.63;4.53;;;;;;;;;;5076219;28;20204;-64
2023/10/13 14:21:57;;;;;;;7.50;5.20;;;;;;;;;;5076311;28;20573;-64
2023/10/13 14:24:28;;;;;;;7.30;4.40;;;;;;;;;;5077173;28;20216;-64
2023/10/13 14:26:55;;;;;;;6.30;4.45;;;;;;;;;;5077417;28;20262;-64
2023/10/13 14:29:26;;;;;;;7.63;4.88;;;;;;;;;;5077818;28;20590;-64
2023/10/13 14:31:53;;;;;;;7.18;4.60;;;;;;;;;;5077006;28;20207;-64
2023/10/13 14:34:21;;;;;;;8.10;4.63;;;;;;;;;;5076371;28;20620;-64
2023/10/13 14:36:49;;;;;;;5.15;4.32;;;;;;;;;;5076714;28;20208;-64
2023/10/13 14:39:16;;;;;;;6.82;4.45;;;;;;;;;;5076229;28;20223;-65
2023/10/13 14:41:47;;;;;;;6.18;4.63;;;;;;;;;;5063304;28;20292;-64
2023/10/13 14:44:15;;;;;;;5.43;4.30;;;;;;;;;;5058230;28;20205;-65
2023/10/13 14:46:43;;;;;;;5.93;4.22;;;;;;;;;;5060520;28;20228;-65
2023/10/13 14:49:10;;;;;;;6.15;3.92;;;;;;;;;;5055826;28;20627;-64
2023/10/13 14:51:39;;;;;;;4.60;4.07;;;;;;;;;;5055606;28;20217;-64
2023/10/13 14:54:07;;;;;;;5.07;4.13;;;;;;;;;;5055391;28;20229;-64
2023/10/13 14:56:34;;;;;;;4.97;3.97;;;;;;;;;;5054578;28;20213;-64
2023/10/13 14:59:04;;;;;;;5.78;4.38;;;;;;;;;;5055531;28;20197;-63
2023/10/13 15:01:32;;;;;;;4.45;4.05;;;;;;;;;;5056703;28;20216;-63
2023/10/13 15:03:59;;;;;;;5.60;4.38;;;;;;;;;;5057343;28;20632;-63
2023/10/13 15:06:28;;;;;;;4.43;4.03;;;;;;;;;;5055439;28;20232;-63
2023/10/13 15:08:57;;;;;;;4.40;4.00;;;;;;;;;;5056061;28;20209;-63
2023/10/13 15:11:26;;;;;;;6.13;4.10;;;;;;;;;;5055332;28;20204;-63
2023/10/13 15:13:54;;;;;;;5.32;4.70;;;;;;;;;;5055473;28;20200;-63
2023/10/13 15:16:23;;;;;;;5.57;4.28;;;;;;;;;;5055803;28;20304;-63
2023/10/13 15:18:52;;;;;;;5.10;4.43;;;;;;;;;;5055626;28;20213;-63
2023/10/13 15:21:22;;;;;;;4.70;4.20;;;;;;;;;;5055169;28;20201;-63
2023/10/13 15:23:51;;;;;;;6.65;4.00;;;;;;;;;;5055031;28;20212;-63
2023/10/13 15:26:21;;;;;;;4.55;4.13;;;;;;;;;;5055633;28;20229;-63
2023/10/13 15:28:49;;;;;;;6.45;4.20;;;;;;;;;;5056340;28;20535;-63
2023/10/13 15:31:38;;;;;;;5.05;4.00;;;;;;;;;;5055342;28;20449;-63
2023/10/13 15:34:12;;;;;;;4.53;3.95;;;;;;;;;;5055304;28;20205;-64
2023/10/13 15:36:40;;;;;;;6.43;4.22;;;;;;;;;;5055430;28;20211;-63
2023/10/13 15:39:10;;;;;;;6.80;4.60;;;;;;;;;;5055802;28;20588;-64
2023/10/13 15:41:38;;;;;;;5.30;4.38;;;;;;;;;;5055280;28;20232;-64
2023/10/13 15:44:09;;;;;;;4.68;4.28;;;;;;;;;;5055294;28;20205;-63
2023/10/13 15:46:37;;;;;;;4.82;3.83;;;;;;;;;;5054928;28;20239;-63
2023/10/13 15:49:05;;;;;;;6.18;4.47;;;;;;;;;;5054613;28;20205;-64
2023/10/13 15:51:36;;;;;;;5.45;3.78;;;;;;;;;;5055131;28;20675;-64
2023/10/13 15:54:04;;;;;;;4.40;4.00;;;;;;;;;;5054198;28;20254;-63
2023/10/13 15:56:32;;;;;;;5.97;4.47;;;;;;;;;;5055346;28;20193;-63
2023/10/13 15:59:01;;;;;;;6.28;4.30;;;;;;;;;;5055163;28;20212;-64
2023/10/13 16:01:29;;;;;;;5.53;4.10;;;;;;;;;;5052852;28;20201;-64
2023/10/13 16:03:56;;;;;;;6.15;4.40;;;;;;;;;;5054366;28;20211;-64
2023/10/13 16:06:25;;;;;;;5.93;4.32;;;;;;;;;;5054571;28;20785;-64
2023/10/13 16:08:55;;;;;;;5.55;4.40;;;;;;;;;;5053759;28;20236;-64
2023/10/13 16:11:23;;;;;;;6.10;4.30;;;;;;;;;;5053397;28;20266;-63
2023/10/13 16:13:51;;;;;;;4.68;4.03;;;;;;;;;;5054256;28;20205;-64
2023/10/13 16:16:22;;;;;;;4.95;3.78;;;;;;;;;;5053761;28;20201;-64
2023/10/13 16:18:50;;;;;;;7.22;4.40;;;;;;;;;;5053626;28;20628;-63
2023/10/13 16:21:18;;;;;;;6.88;3.97;;;;;;;;;;5053459;28;20201;-63
2023/10/13 16:23:47;;;;;;;6.05;3.85;;;;;;;;;;5053142;28;20323;-63
2023/10/13 16:26:16;;;;;;;5.10;4.03;;;;;;;;;;5054438;28;20224;-63
2023/10/13 16:28:44;;;;;;;4.72;4.30;;;;;;;;;;5054197;28;20482;-63
2023/10/13 16:31:11;;;;;;;5.05;3.92;;;;;;;;;;5053775;28;20197;-64
2023/10/13 16:33:39;;;;;;;5.68;4.18;;;;;;;;;;5054638;28;20205;-63
2023/10/13 16:36:08;;;;;;;6.72;4.15;;;;;;;;;;5053947;28;20287;-63
2023/10/13 16:38:35;;;;;;;6.93;3.80;;;;;;;;;;5053760;28;20236;-64
2023/10/13 16:41:05;;;;;;;4.53;3.95;;;;;;;;;;5054128;28;20697;-64
2023/10/13 16:43:35;;;;;;;6.03;4.43;;;;;;;;;;5054907;28;20675;-64
2023/10/13 16:46:06;;;;;;;4.55;4.10;;;;;;;;;;5054269;28;20232;-64
2023/10/13 16:48:33;;;;;;;5.60;4.05;;;;;;;;;;5053907;28;20217;-64
2023/10/13 16:51:01;;;;;;;4.80;4.10;;;;;;;;;;5054021;28;20203;-64
2023/10/13 16:53:28;;;;;;;6.35;4.05;;;;;;;;;;5052842;28;20233;-64
2023/10/13 16:56:00;;;;;;;4.32;3.83;;;;;;;;;;5053669;28;20259;-64
2023/10/13 16:58:30;;;;;;;6.03;4.32;;;;;;;;;;5053572;28;20608;-64
2023/10/13 17:01:03;;;;;;;5.38;4.20;;;;;;;;;;5053138;28;20618;-64
2023/10/13 17:03:31;;;;;;;4.38;3.95;;;;;;;;;;5053760;28;20215;-64
2023/10/13 17:06:01;;;;;;;5.80;4.00;;;;;;;;;;5056396;28;20232;-64
2023/10/13 17:08:29;;;;;;;4.97;4.20;;;;;;;;;;5058614;28;20578;-64
2023/10/13 17:10:56;;;;;;;4.07;3.60;;;;;;;;;;5057928;28;20652;-64
2023/10/13 17:13:25;;;;;;;4.65;3.85;;;;;;;;;;5057801;28;20211;-64
2023/10/13 17:15:53;;;;;;;4.45;3.65;;;;;;;;;;5058818;28;20228;-64
2023/10/13 17:18:21;;;;;;;6.18;3.97;;;;;;;;;;5058454;28;20200;-64
2023/10/13 17:20:49;;;;;;;6.35;4.00;;;;;;;;;;5058961;28;20691;-64
2023/10/13 17:23:16;;;;;;;4.03;3.63;;;;;;;;;;5058213;28;20215;-64
2023/10/13 17:25:44;;;;;;;3.90;3.60;;;;;;;;;;5058439;28;20236;-63
2023/10/13 17:28:13;;;;;;;4.40;4.00;;;;;;;;;;5058540;28;20204;-63
2023/10/13 17:30:41;;;;;;;5.03;3.60;;;;;;;;;;5058199;28;20213;-64
2023/10/13 17:33:11;;;;;;;4.35;3.60;;;;;;;;;;5058569;28;20570;-64
2023/10/13 17:35:40;;;;;;;4.32;3.92;;;;;;;;;;5058315;28;20303;-63
2023/10/13 17:38:08;;;;;;;4.10;3.70;;;;;;;;;;5058544;28;20208;-64